sensor_id;sensor_type;location;lat;lon;timestamp;temperature;humidity
72114;SHT31;59989;46.220;19.888;2023-07-22T00:02:02;19.73;99.99
72114;SHT31;59989;46.220;19.888;2023-07-22T00:05:05;19.80;99.99
72114;SHT31;59989;46.220;19.888;2023-07-22T00:08:09;19.87;99.99
72114;SHT31;59989;46.220;19.888;2023-07-22T00:11:12;19.95;99.99
72114;SHT31;59989;46.220;19.888;2023-07-22T00:14:15;19.97;99.99
72114;SHT31;59989;46.220;19.888;2023-07-22T00:17:18;20.00;99.99
72114;SHT31;59989;46.220;19.888;2023-07-22T00:20:20;19.97;99.99
72114;SHT31;59989;46.220;19.888;2023-07-22T00:23:23;20.00;99.99
72114;SHT31;59989;46.220;19.888;2023-07-22T00:26:26;19.98;99.99
72114;SHT31;59989;46.220;19.888;2023-07-22T00:29:29;19.82;99.99
72114;SHT31;59989;46.220;19.888;2023-07-22T00:32:33;19.84;99.99
72114;SHT31;59989;46.220;19.888;2023-07-22T00:35:36;19.74;99.99
72114;SHT31;59989;46.220;19.888;2023-07-22T00:38:40;19.66;99.99
72114;SHT31;59989;46.220;19.888;2023-07-22T00:41:43;19.54;99.99
72114;SHT31;59989;46.220;19.888;2023-07-22T00:44:48;19.46;99.99
72114;SHT31;59989;46.220;19.888;2023-07-22T00:47:50;19.46;99.99
72114;SHT31;59989;46.220;19.888;2023-07-22T00:50:53;19.51;99.99
72114;SHT31;59989;46.220;19.888;2023-07-22T00:53:56;19.51;99.99
72114;SHT31;59989;46.220;19.888;2023-07-22T00:56:58;19.56;99.99
72114;SHT31;59989;46.220;19.888;2023-07-22T01:00:01;19.53;99.99
72114;SHT31;59989;46.220;19.888;2023-07-22T01:03:04;19.54;99.99
72114;SHT31;59989;46.220;19.888;2023-07-22T01:06:07;19.51;99.99
72114;SHT31;59989;46.220;19.888;2023-07-22T01:09:11;19.51;99.99
72114;SHT31;59989;46.220;19.888;2023-07-22T01:12:15;19.56;99.99
72114;SHT31;59989;46.220;19.888;2023-07-22T01:15:18;19.57;99.99
72114;SHT31;59989;46.220;19.888;2023-07-22T01:18:22;19.43;99.99
72114;SHT31;59989;46.220;19.888;2023-07-22T01:21:24;19.29;99.99
72114;SHT31;59989;46.220;19.888;2023-07-22T01:24:28;19.24;99.99
72114;SHT31;59989;46.220;19.888;2023-07-22T01:27:31;19.40;99.99
72114;SHT31;59989;46.220;19.888;2023-07-22T01:30:33;19.47;99.99
72114;SHT31;59989;46.220;19.888;2023-07-22T01:33:36;19.47;99.99
72114;SHT31;59989;46.220;19.888;2023-07-22T01:36:40;19.50;99.99
72114;SHT31;59989;46.220;19.888;2023-07-22T01:39:42;19.59;99.99
72114;SHT31;59989;46.220;19.888;2023-07-22T01:42:46;19.51;99.99
72114;SHT31;59989;46.220;19.888;2023-07-22T01:45:51;19.54;99.99
72114;SHT31;59989;46.220;19.888;2023-07-22T01:48:55;19.56;99.99
72114;SHT31;59989;46.220;19.888;2023-07-22T01:51:58;19.57;99.99
72114;SHT31;59989;46.220;19.888;2023-07-22T01:55:02;19.57;99.99
72114;SHT31;59989;46.220;19.888;2023-07-22T01:58:11;19.59;99.99
72114;SHT31;59989;46.220;19.888;2023-07-22T02:01:14;19.59;99.99
72114;SHT31;59989;46.220;19.888;2023-07-22T02:04:18;19.53;99.96
72114;SHT31;59989;46.220;19.888;2023-07-22T02:07:20;19.47;99.89
72114;SHT31;59989;46.220;19.888;2023-07-22T02:10:23;19.43;99.68
72114;SHT31;59989;46.220;19.888;2023-07-22T02:13:26;19.40;99.56
72114;SHT31;59989;46.220;19.888;2023-07-22T02:16:31;19.34;99.50
72114;SHT31;59989;46.220;19.888;2023-07-22T02:19:34;19.22;99.27
72114;SHT31;59989;46.220;19.888;2023-07-22T02:22:36;19.20;99.19
72114;SHT31;59989;46.220;19.888;2023-07-22T02:25:39;19.15;99.29
72114;SHT31;59989;46.220;19.888;2023-07-22T02:28:42;19.11;98.98
72114;SHT31;59989;46.220;19.888;2023-07-22T02:31:45;18.99;99.01
72114;SHT31;59989;46.220;19.888;2023-07-22T02:34:49;18.99;99.11
72114;SHT31;59989;46.220;19.888;2023-07-22T02:37:51;18.98;99.08
72114;SHT31;59989;46.220;19.888;2023-07-22T02:40:54;18.87;98.80
72114;SHT31;59989;46.220;19.888;2023-07-22T02:44:01;18.76;98.88
72114;SHT31;59989;46.220;19.888;2023-07-22T02:47:05;18.71;98.99
72114;SHT31;59989;46.220;19.888;2023-07-22T02:50:08;18.67;99.09
72114;SHT31;59989;46.220;19.888;2023-07-22T02:53:11;18.63;98.88
72114;SHT31;59989;46.220;19.888;2023-07-22T02:56:14;18.44;98.57
72114;SHT31;59989;46.220;19.888;2023-07-22T02:59:18;18.36;98.85
72114;SHT31;59989;46.220;19.888;2023-07-22T03:02:20;18.30;98.92
72114;SHT31;59989;46.220;19.888;2023-07-22T03:05:23;18.26;98.79
72114;SHT31;59989;46.220;19.888;2023-07-22T03:08:28;18.24;98.98
72114;SHT31;59989;46.220;19.888;2023-07-22T03:11:30;18.32;99.42
72114;SHT31;59989;46.220;19.888;2023-07-22T03:14:33;18.23;99.00
72114;SHT31;59989;46.220;19.888;2023-07-22T03:17:41;18.18;99.20
72114;SHT31;59989;46.220;19.888;2023-07-22T03:20:44;18.07;98.84
72114;SHT31;59989;46.220;19.888;2023-07-22T03:23:47;18.03;98.99
72114;SHT31;59989;46.220;19.888;2023-07-22T03:26:50;18.09;99.38
72114;SHT31;59989;46.220;19.888;2023-07-22T03:29:53;18.12;99.45
72114;SHT31;59989;46.220;19.888;2023-07-22T03:32:56;18.03;99.18
72114;SHT31;59989;46.220;19.888;2023-07-22T03:35:58;18.02;99.26
72114;SHT31;59989;46.220;19.888;2023-07-22T03:39:04;17.96;99.13
72114;SHT31;59989;46.220;19.888;2023-07-22T03:42:07;17.89;98.87
72114;SHT31;59989;46.220;19.888;2023-07-22T03:45:10;17.85;98.83
72114;SHT31;59989;46.220;19.888;2023-07-22T03:48:12;17.81;98.72
72114;SHT31;59989;46.220;19.888;2023-07-22T03:51:16;17.79;98.58
72114;SHT31;59989;46.220;19.888;2023-07-22T03:54:22;17.72;98.48
72114;SHT31;59989;46.220;19.888;2023-07-22T03:57:26;17.75;98.50
72114;SHT31;59989;46.220;19.888;2023-07-22T04:00:32;17.78;98.68
72114;SHT31;59989;46.220;19.888;2023-07-22T04:03:35;17.81;98.70
72114;SHT31;59989;46.220;19.888;2023-07-22T04:06:37;17.79;98.24
72114;SHT31;59989;46.220;19.888;2023-07-22T04:09:40;17.83;98.32
72114;SHT31;59989;46.220;19.888;2023-07-22T04:12:42;17.88;98.35
72114;SHT31;59989;46.220;19.888;2023-07-22T04:15:46;17.83;98.21
72114;SHT31;59989;46.220;19.888;2023-07-22T04:18:49;17.90;98.23
72114;SHT31;59989;46.220;19.888;2023-07-22T04:21:51;17.93;97.62
72114;SHT31;59989;46.220;19.888;2023-07-22T04:24:54;18.00;97.48
72114;SHT31;59989;46.220;19.888;2023-07-22T04:27:56;17.97;97.35
72114;SHT31;59989;46.220;19.888;2023-07-22T04:31:00;18.07;97.14
72114;SHT31;59989;46.220;19.888;2023-07-22T04:34:02;18.14;96.84
72114;SHT31;59989;46.220;19.888;2023-07-22T04:37:05;18.32;96.98
72114;SHT31;59989;46.220;19.888;2023-07-22T04:40:10;18.32;96.36
72114;SHT31;59989;46.220;19.888;2023-07-22T04:43:16;18.36;96.14
72114;SHT31;59989;46.220;19.888;2023-07-22T04:46:23;18.33;96.00
72114;SHT31;59989;46.220;19.888;2023-07-22T04:49:26;18.29;96.21
72114;SHT31;59989;46.220;19.888;2023-07-22T04:52:29;18.29;96.08
72114;SHT31;59989;46.220;19.888;2023-07-22T04:55:32;18.32;96.37
72114;SHT31;59989;46.220;19.888;2023-07-22T04:58:35;18.36;95.81
72114;SHT31;59989;46.220;19.888;2023-07-22T05:01:37;18.40;95.84
72114;SHT31;59989;46.220;19.888;2023-07-22T05:04:40;18.48;95.75
72114;SHT31;59989;46.220;19.888;2023-07-22T05:07:43;18.54;95.39
72114;SHT31;59989;46.220;19.888;2023-07-22T05:10:51;18.61;95.62
72114;SHT31;59989;46.220;19.888;2023-07-22T05:13:53;18.71;95.31
72114;SHT31;59989;46.220;19.888;2023-07-22T05:16:56;18.81;94.82
72114;SHT31;59989;46.220;19.888;2023-07-22T05:19:59;18.87;94.51
72114;SHT31;59989;46.220;19.888;2023-07-22T05:23:01;18.94;94.37
72114;SHT31;59989;46.220;19.888;2023-07-22T05:26:09;18.95;94.40
72114;SHT31;59989;46.220;19.888;2023-07-22T05:29:11;19.03;94.35
72114;SHT31;59989;46.220;19.888;2023-07-22T05:32:14;18.85;93.56
72114;SHT31;59989;46.220;19.888;2023-07-22T05:35:34;18.99;94.18
72114;SHT31;59989;46.220;19.888;2023-07-22T05:38:38;19.13;94.25
72114;SHT31;59989;46.220;19.888;2023-07-22T05:41:42;19.19;93.54
72114;SHT31;59989;46.220;19.888;2023-07-22T05:44:45;19.23;93.06
72114;SHT31;59989;46.220;19.888;2023-07-22T05:47:49;19.39;94.02
72114;SHT31;59989;46.220;19.888;2023-07-22T05:50:51;19.47;92.87
72114;SHT31;59989;46.220;19.888;2023-07-22T05:53:55;19.51;92.77
72114;SHT31;59989;46.220;19.888;2023-07-22T05:56:58;19.67;92.52
72114;SHT31;59989;46.220;19.888;2023-07-22T06:00:00;19.70;92.19
72114;SHT31;59989;46.220;19.888;2023-07-22T06:03:13;19.80;91.26
72114;SHT31;59989;46.220;19.888;2023-07-22T06:06:16;19.90;90.51
72114;SHT31;59989;46.220;19.888;2023-07-22T06:09:19;19.90;89.47
72114;SHT31;59989;46.220;19.888;2023-07-22T06:12:23;19.94;89.31
72114;SHT31;59989;46.220;19.888;2023-07-22T06:15:25;20.09;90.24
72114;SHT31;59989;46.220;19.888;2023-07-22T06:18:30;20.17;90.02
72114;SHT31;59989;46.220;19.888;2023-07-22T06:21:32;20.22;88.91
72114;SHT31;59989;46.220;19.888;2023-07-22T06:24:35;20.32;89.34
72114;SHT31;59989;46.220;19.888;2023-07-22T06:27:38;20.43;89.38
72114;SHT31;59989;46.220;19.888;2023-07-22T06:30:41;20.63;88.83
72114;SHT31;59989;46.220;19.888;2023-07-22T06:33:43;20.79;88.32
72114;SHT31;59989;46.220;19.888;2023-07-22T06:36:46;20.80;87.01
72114;SHT31;59989;46.220;19.888;2023-07-22T06:39:50;21.03;86.44
72114;SHT31;59989;46.220;19.888;2023-07-22T06:42:59;21.27;87.19
72114;SHT31;59989;46.220;19.888;2023-07-22T06:46:01;21.51;86.22
72114;SHT31;59989;46.220;19.888;2023-07-22T06:49:04;21.58;84.13
72114;SHT31;59989;46.220;19.888;2023-07-22T06:52:07;21.75;85.00
72114;SHT31;59989;46.220;19.888;2023-07-22T06:55:09;21.99;85.08
72114;SHT31;59989;46.220;19.888;2023-07-22T06:58:16;22.10;83.63
72114;SHT31;59989;46.220;19.888;2023-07-22T07:01:18;22.02;82.34
72114;SHT31;59989;46.220;19.888;2023-07-22T07:04:21;22.14;81.24
72114;SHT31;59989;46.220;19.888;2023-07-22T07:07:30;22.50;82.34
72114;SHT31;59989;46.220;19.888;2023-07-22T07:10:37;22.61;79.85
72114;SHT31;59989;46.220;19.888;2023-07-22T07:13:40;22.85;80.65
72114;SHT31;59989;46.220;19.888;2023-07-22T07:16:44;22.98;80.67
72114;SHT31;59989;46.220;19.888;2023-07-22T07:19:47;22.88;78.54
72114;SHT31;59989;46.220;19.888;2023-07-22T07:22:50;22.91;78.82
72114;SHT31;59989;46.220;19.888;2023-07-22T07:25:53;23.23;80.18
72114;SHT31;59989;46.220;19.888;2023-07-22T07:28:59;23.36;77.86
72114;SHT31;59989;46.220;19.888;2023-07-22T07:32:01;23.42;78.37
72114;SHT31;59989;46.220;19.888;2023-07-22T07:35:05;23.66;77.19
72114;SHT31;59989;46.220;19.888;2023-07-22T07:38:08;23.85;75.80
72114;SHT31;59989;46.220;19.888;2023-07-22T07:41:12;24.02;75.92
72114;SHT31;59989;46.220;19.888;2023-07-22T07:44:18;24.11;75.69
72114;SHT31;59989;46.220;19.888;2023-07-22T07:47:20;24.39;74.35
72114;SHT31;59989;46.220;19.888;2023-07-22T07:50:23;24.57;73.93
72114;SHT31;59989;46.220;19.888;2023-07-22T07:53:26;24.48;74.48
72114;SHT31;59989;46.220;19.888;2023-07-22T07:56:28;24.40;71.34
72114;SHT31;59989;46.220;19.888;2023-07-22T07:59:31;24.67;73.03
72114;SHT31;59989;46.220;19.888;2023-07-22T08:02:34;24.81;72.96
72114;SHT31;59989;46.220;19.888;2023-07-22T08:05:37;25.07;71.77
72114;SHT31;59989;46.220;19.888;2023-07-22T08:08:40;24.87;68.69
72114;SHT31;59989;46.220;19.888;2023-07-22T08:11:43;25.17;69.76
72114;SHT31;59989;46.220;19.888;2023-07-22T08:14:46;24.93;68.49
72114;SHT31;59989;46.220;19.888;2023-07-22T08:17:49;25.11;69.29
72114;SHT31;59989;46.220;19.888;2023-07-22T08:20:54;25.00;69.08
72114;SHT31;59989;46.220;19.888;2023-07-22T08:23:57;25.11;69.50
72114;SHT31;59989;46.220;19.888;2023-07-22T08:27:00;25.46;68.47
72114;SHT31;59989;46.220;19.888;2023-07-22T08:30:03;25.48;67.59
72114;SHT31;59989;46.220;19.888;2023-07-22T08:33:07;25.72;68.82
72114;SHT31;59989;46.220;19.888;2023-07-22T08:36:11;25.80;66.01
72114;SHT31;59989;46.220;19.888;2023-07-22T08:39:14;25.75;63.82
72114;SHT31;59989;46.220;19.888;2023-07-22T08:42:19;25.94;65.32
72114;SHT31;59989;46.220;19.888;2023-07-22T08:45:27;26.12;66.22
72114;SHT31;59989;46.220;19.888;2023-07-22T08:48:31;26.48;64.47
72114;SHT31;59989;46.220;19.888;2023-07-22T08:51:39;26.18;64.03
72114;SHT31;59989;46.220;19.888;2023-07-22T08:54:42;26.64;63.43
72114;SHT31;59989;46.220;19.888;2023-07-22T08:57:46;26.86;62.35
72114;SHT31;59989;46.220;19.888;2023-07-22T09:00:51;27.33;62.42
72114;SHT31;59989;46.220;19.888;2023-07-22T09:03:54;26.99;60.55
72114;SHT31;59989;46.220;19.888;2023-07-22T09:06:59;26.93;62.41
72114;SHT31;59989;46.220;19.888;2023-07-22T09:10:01;27.17;60.60
72114;SHT31;59989;46.220;19.888;2023-07-22T09:13:05;27.54;61.82
72114;SHT31;59989;46.220;19.888;2023-07-22T09:16:08;27.68;61.44
72114;SHT31;59989;46.220;19.888;2023-07-22T09:19:11;27.58;61.85
72114;SHT31;59989;46.220;19.888;2023-07-22T09:22:14;27.10;58.81
72114;SHT31;59989;46.220;19.888;2023-07-22T09:25:25;27.39;56.93
72114;SHT31;59989;46.220;19.888;2023-07-22T09:28:33;27.91;57.66
72114;SHT31;59989;46.220;19.888;2023-07-22T09:31:51;27.94;55.66
72114;SHT31;59989;46.220;19.888;2023-07-22T09:34:54;27.63;57.72
72114;SHT31;59989;46.220;19.888;2023-07-22T09:37:59;27.68;58.45
72114;SHT31;59989;46.220;19.888;2023-07-22T09:41:01;28.05;56.13
72114;SHT31;59989;46.220;19.888;2023-07-22T09:44:09;28.02;57.07
72114;SHT31;59989;46.220;19.888;2023-07-22T09:47:12;28.12;55.27
72114;SHT31;59989;46.220;19.888;2023-07-22T09:53:18;28.53;56.36
72114;SHT31;59989;46.220;19.888;2023-07-22T09:56:21;28.84;56.72
72114;SHT31;59989;46.220;19.888;2023-07-22T09:59:24;28.48;56.36
72114;SHT31;59989;46.220;19.888;2023-07-22T10:02:30;28.53;55.82
72114;SHT31;59989;46.220;19.888;2023-07-22T10:05:38;28.97;55.66
72114;SHT31;59989;46.220;19.888;2023-07-22T10:08:43;29.62;53.50
72114;SHT31;59989;46.220;19.888;2023-07-22T10:11:49;29.89;53.40
72114;SHT31;59989;46.220;19.888;2023-07-22T10:14:53;29.24;52.27
72114;SHT31;59989;46.220;19.888;2023-07-22T10:17:57;29.17;51.76
72114;SHT31;59989;46.220;19.888;2023-07-22T10:21:01;29.22;49.71
72114;SHT31;59989;46.220;19.888;2023-07-22T10:24:04;30.44;50.45
72114;SHT31;59989;46.220;19.888;2023-07-22T10:27:07;30.42;48.79
72114;SHT31;59989;46.220;19.888;2023-07-22T10:30:14;29.80;49.00
72114;SHT31;59989;46.220;19.888;2023-07-22T10:33:17;30.16;48.61
72114;SHT31;59989;46.220;19.888;2023-07-22T10:36:20;30.68;48.64
72114;SHT31;59989;46.220;19.888;2023-07-22T10:39:27;30.89;47.55
72114;SHT31;59989;46.220;19.888;2023-07-22T10:42:31;29.36;52.89
72114;SHT31;59989;46.220;19.888;2023-07-22T10:45:40;29.07;53.38
72114;SHT31;59989;46.220;19.888;2023-07-22T10:48:43;30.31;51.63
72114;SHT31;59989;46.220;19.888;2023-07-22T10:51:50;30.98;47.00
72114;SHT31;59989;46.220;19.888;2023-07-22T10:54:55;30.88;48.86
72114;SHT31;59989;46.220;19.888;2023-07-22T10:58:04;31.48;48.71
72114;SHT31;59989;46.220;19.888;2023-07-22T11:04:28;31.67;47.28
72114;SHT31;59989;46.220;19.888;2023-07-22T11:08:03;32.19;47.06
72114;SHT31;59989;46.220;19.888;2023-07-22T11:11:07;32.57;44.63
72114;SHT31;59989;46.220;19.888;2023-07-22T11:14:22;30.35;46.74
72114;SHT31;59989;46.220;19.888;2023-07-22T11:17:29;31.26;45.72
72114;SHT31;59989;46.220;19.888;2023-07-22T11:20:35;31.67;44.07
72114;SHT31;59989;46.220;19.888;2023-07-22T11:23:38;32.32;43.69
72114;SHT31;59989;46.220;19.888;2023-07-22T11:26:41;31.95;42.27
72114;SHT31;59989;46.220;19.888;2023-07-22T11:29:50;32.57;43.45
72114;SHT31;59989;46.220;19.888;2023-07-22T11:32:53;32.67;43.79
72114;SHT31;59989;46.220;19.888;2023-07-22T11:35:55;32.66;44.15
72114;SHT31;59989;46.220;19.888;2023-07-22T11:39:03;32.64;44.77
72114;SHT31;59989;46.220;19.888;2023-07-22T11:42:06;33.75;41.38
72114;SHT31;59989;46.220;19.888;2023-07-22T11:45:08;33.86;41.16
72114;SHT31;59989;46.220;19.888;2023-07-22T11:48:12;33.78;40.57
72114;SHT31;59989;46.220;19.888;2023-07-22T11:51:17;34.57;41.00
72114;SHT31;59989;46.220;19.888;2023-07-22T11:54:21;34.13;40.69
72114;SHT31;59989;46.220;19.888;2023-07-22T11:57:24;34.39;39.33
72114;SHT31;59989;46.220;19.888;2023-07-22T12:00:27;34.75;38.34
72114;SHT31;59989;46.220;19.888;2023-07-22T12:03:33;34.27;42.71
72114;SHT31;59989;46.220;19.888;2023-07-22T12:06:37;34.51;39.84
72114;SHT31;59989;46.220;19.888;2023-07-22T12:09:40;34.78;40.55
72114;SHT31;59989;46.220;19.888;2023-07-22T12:12:44;34.84;39.71
72114;SHT31;59989;46.220;19.888;2023-07-22T12:16:02;34.98;39.05
72114;SHT31;59989;46.220;19.888;2023-07-22T12:19:08;34.71;39.19
72114;SHT31;59989;46.220;19.888;2023-07-22T12:22:11;35.03;38.67
72114;SHT31;59989;46.220;19.888;2023-07-22T12:25:15;34.27;39.83
72114;SHT31;59989;46.220;19.888;2023-07-22T12:28:17;34.88;39.25
72114;SHT31;59989;46.220;19.888;2023-07-22T12:31:20;35.50;38.17
72114;SHT31;59989;46.220;19.888;2023-07-22T12:34:22;36.08;37.54
72114;SHT31;59989;46.220;19.888;2023-07-22T12:37:25;35.69;36.47
72114;SHT31;59989;46.220;19.888;2023-07-22T12:40:28;36.78;36.05
72114;SHT31;59989;46.220;19.888;2023-07-22T12:43:31;36.79;35.22
72114;SHT31;59989;46.220;19.888;2023-07-22T12:46:33;35.87;35.90
72114;SHT31;59989;46.220;19.888;2023-07-22T12:49:36;35.88;35.83
72114;SHT31;59989;46.220;19.888;2023-07-22T12:52:39;35.33;37.87
72114;SHT31;59989;46.220;19.888;2023-07-22T12:55:41;36.04;36.33
72114;SHT31;59989;46.220;19.888;2023-07-22T12:58:44;37.55;32.09
72114;SHT31;59989;46.220;19.888;2023-07-22T13:01:46;40.09;31.42
72114;SHT31;59989;46.220;19.888;2023-07-22T13:04:49;39.00;31.94
72114;SHT31;59989;46.220;19.888;2023-07-22T13:07:51;37.54;33.64
72114;SHT31;59989;46.220;19.888;2023-07-22T13:10:55;38.30;32.13
72114;SHT31;59989;46.220;19.888;2023-07-22T13:13:58;38.81;34.09
72114;SHT31;59989;46.220;19.888;2023-07-22T13:17:00;37.58;33.60
72114;SHT31;59989;46.220;19.888;2023-07-22T13:20:06;38.02;33.01
72114;SHT31;59989;46.220;19.888;2023-07-22T13:23:13;38.12;32.13
72114;SHT31;59989;46.220;19.888;2023-07-22T13:26:16;38.15;31.24
72114;SHT31;59989;46.220;19.888;2023-07-22T13:29:19;39.35;31.67
72114;SHT31;59989;46.220;19.888;2023-07-22T13:32:21;37.65;31.07
72114;SHT31;59989;46.220;19.888;2023-07-22T13:35:24;38.37;31.75
72114;SHT31;59989;46.220;19.888;2023-07-22T13:38:26;38.29;32.12
72114;SHT31;59989;46.220;19.888;2023-07-22T13:41:29;38.08;31.01
72114;SHT31;59989;46.220;19.888;2023-07-22T13:44:31;39.17;30.83
72114;SHT31;59989;46.220;19.888;2023-07-22T13:47:34;40.44;28.84
72114;SHT31;59989;46.220;19.888;2023-07-22T13:50:37;38.94;30.76
72114;SHT31;59989;46.220;19.888;2023-07-22T13:53:45;38.27;30.17
72114;SHT31;59989;46.220;19.888;2023-07-22T13:56:47;40.33;28.40
72114;SHT31;59989;46.220;19.888;2023-07-22T13:59:50;37.44;31.40
72114;SHT31;59989;46.220;19.888;2023-07-22T14:02:52;34.82;34.48
72114;SHT31;59989;46.220;19.888;2023-07-22T14:05:55;37.74;31.95
72114;SHT31;59989;46.220;19.888;2023-07-22T14:08:58;40.64;27.75
72114;SHT31;59989;46.220;19.888;2023-07-22T14:12:01;38.47;29.92
72114;SHT31;59989;46.220;19.888;2023-07-22T14:15:04;38.26;31.48
72114;SHT31;59989;46.220;19.888;2023-07-22T14:18:07;38.97;31.16
72114;SHT31;59989;46.220;19.888;2023-07-22T14:21:10;38.77;29.66
72114;SHT31;59989;46.220;19.888;2023-07-22T14:24:13;41.80;27.67
72114;SHT31;59989;46.220;19.888;2023-07-22T14:27:15;41.00;26.83
72114;SHT31;59989;46.220;19.888;2023-07-22T14:30:18;41.81;27.93
72114;SHT31;59989;46.220;19.888;2023-07-22T14:33:20;42.93;26.33
72114;SHT31;59989;46.220;19.888;2023-07-22T14:36:23;40.34;29.35
72114;SHT31;59989;46.220;19.888;2023-07-22T14:39:26;40.51;28.73
72114;SHT31;59989;46.220;19.888;2023-07-22T14:42:29;40.71;29.55
72114;SHT31;59989;46.220;19.888;2023-07-22T14:45:35;39.92;30.26
72114;SHT31;59989;46.220;19.888;2023-07-22T14:48:38;39.22;30.03
72114;SHT31;59989;46.220;19.888;2023-07-22T14:52:01;38.93;29.98
72114;SHT31;59989;46.220;19.888;2023-07-22T14:55:11;39.35;29.82
72114;SHT31;59989;46.220;19.888;2023-07-22T14:58:34;39.76;29.34
72114;SHT31;59989;46.220;19.888;2023-07-22T15:01:41;38.90;28.99
72114;SHT31;59989;46.220;19.888;2023-07-22T15:04:43;38.75;29.58
72114;SHT31;59989;46.220;19.888;2023-07-22T15:07:46;41.25;28.16
72114;SHT31;59989;46.220;19.888;2023-07-22T15:10:49;39.25;29.38
72114;SHT31;59989;46.220;19.888;2023-07-22T15:13:54;42.18;27.18
72114;SHT31;59989;46.220;19.888;2023-07-22T15:16:57;42.11;26.62
72114;SHT31;59989;46.220;19.888;2023-07-22T15:19:59;39.99;28.30
72114;SHT31;59989;46.220;19.888;2023-07-22T15:23:02;38.60;29.41
72114;SHT31;59989;46.220;19.888;2023-07-22T15:26:04;36.53;31.15
72114;SHT31;59989;46.220;19.888;2023-07-22T15:29:07;37.67;31.48
72114;SHT31;59989;46.220;19.888;2023-07-22T15:32:13;37.41;32.33
72114;SHT31;59989;46.220;19.888;2023-07-22T15:35:16;39.26;29.88
72114;SHT31;59989;46.220;19.888;2023-07-22T15:38:18;39.32;30.22
72114;SHT31;59989;46.220;19.888;2023-07-22T15:41:21;37.75;29.99
72114;SHT31;59989;46.220;19.888;2023-07-22T15:44:27;37.62;31.01
72114;SHT31;59989;46.220;19.888;2023-07-22T15:47:29;36.72;31.42
72114;SHT31;59989;46.220;19.888;2023-07-22T15:50:32;36.17;31.81
72114;SHT31;59989;46.220;19.888;2023-07-22T15:53:38;35.57;33.78
72114;SHT31;59989;46.220;19.888;2023-07-22T15:56:43;34.63;34.07
72114;SHT31;59989;46.220;19.888;2023-07-22T15:59:45;35.15;35.83
72114;SHT31;59989;46.220;19.888;2023-07-22T16:02:48;34.03;35.79
72114;SHT31;59989;46.220;19.888;2023-07-22T16:05:51;33.21;36.38
72114;SHT31;59989;46.220;19.888;2023-07-22T16:08:53;32.51;38.52
72114;SHT31;59989;46.220;19.888;2023-07-22T16:11:58;31.51;38.20
72114;SHT31;59989;46.220;19.888;2023-07-22T16:15:00;31.06;41.81
72114;SHT31;59989;46.220;19.888;2023-07-22T16:18:03;30.76;42.25
72114;SHT31;59989;46.220;19.888;2023-07-22T16:21:05;30.30;41.40
72114;SHT31;59989;46.220;19.888;2023-07-22T16:24:08;29.92;42.68
72114;SHT31;59989;46.220;19.888;2023-07-22T16:27:11;29.80;43.02
72114;SHT31;59989;46.220;19.888;2023-07-22T16:30:14;29.69;43.13
72114;SHT31;59989;46.220;19.888;2023-07-22T16:33:18;29.54;43.78
72114;SHT31;59989;46.220;19.888;2023-07-22T16:36:20;29.34;43.18
72114;SHT31;59989;46.220;19.888;2023-07-22T16:39:23;29.35;44.37
72114;SHT31;59989;46.220;19.888;2023-07-22T16:42:32;29.04;43.82
72114;SHT31;59989;46.220;19.888;2023-07-22T16:45:34;28.80;44.75
72114;SHT31;59989;46.220;19.888;2023-07-22T16:48:37;28.57;45.09
72114;SHT31;59989;46.220;19.888;2023-07-22T16:51:40;28.53;46.28
72114;SHT31;59989;46.220;19.888;2023-07-22T16:54:44;28.48;45.82
72114;SHT31;59989;46.220;19.888;2023-07-22T16:57:47;28.13;46.22
72114;SHT31;59989;46.220;19.888;2023-07-22T17:00:49;28.01;46.98
72114;SHT31;59989;46.220;19.888;2023-07-22T17:03:53;27.80;47.03
72114;SHT31;59989;46.220;19.888;2023-07-22T17:06:55;27.65;48.20
72114;SHT31;59989;46.220;19.888;2023-07-22T17:09:58;27.47;48.88
72114;SHT31;59989;46.220;19.888;2023-07-22T17:13:00;27.27;47.74
72114;SHT31;59989;46.220;19.888;2023-07-22T17:16:03;27.14;48.48
72114;SHT31;59989;46.220;19.888;2023-07-22T17:19:06;26.99;48.46
72114;SHT31;59989;46.220;19.888;2023-07-22T17:22:09;26.92;48.13
72114;SHT31;59989;46.220;19.888;2023-07-22T17:25:12;26.78;47.85
72114;SHT31;59989;46.220;19.888;2023-07-22T17:28:15;26.65;48.95
72114;SHT31;59989;46.220;19.888;2023-07-22T17:31:18;26.57;48.61
72114;SHT31;59989;46.220;19.888;2023-07-22T17:34:21;26.40;48.45
72114;SHT31;59989;46.220;19.888;2023-07-22T17:37:23;26.33;48.35
72114;SHT31;59989;46.220;19.888;2023-07-22T17:40:27;26.26;48.04
72114;SHT31;59989;46.220;19.888;2023-07-22T17:43:30;26.16;47.23
72114;SHT31;59989;46.220;19.888;2023-07-22T17:46:33;26.07;46.28
72114;SHT31;59989;46.220;19.888;2023-07-22T17:49:36;25.96;46.10
72114;SHT31;59989;46.220;19.888;2023-07-22T17:52:40;25.87;44.86
72114;SHT31;59989;46.220;19.888;2023-07-22T17:55:42;25.80;43.41
72114;SHT31;59989;46.220;19.888;2023-07-22T17:58:45;25.73;42.89
72114;SHT31;59989;46.220;19.888;2023-07-22T18:01:51;25.65;43.37
72114;SHT31;59989;46.220;19.888;2023-07-22T18:04:55;25.58;43.01
72114;SHT31;59989;46.220;19.888;2023-07-22T18:08:03;25.51;44.26
72114;SHT31;59989;46.220;19.888;2023-07-22T18:11:06;25.37;44.13
72114;SHT31;59989;46.220;19.888;2023-07-22T18:14:08;25.28;45.27
72114;SHT31;59989;46.220;19.888;2023-07-22T18:17:11;25.22;46.44
72114;SHT31;59989;46.220;19.888;2023-07-22T18:20:14;25.11;47.24
72114;SHT31;59989;46.220;19.888;2023-07-22T18:23:16;25.06;46.45
72114;SHT31;59989;46.220;19.888;2023-07-22T18:26:19;25.03;44.95
72114;SHT31;59989;46.220;19.888;2023-07-22T18:29:22;25.00;45.21
72114;SHT31;59989;46.220;19.888;2023-07-22T18:32:28;24.95;45.51
72114;SHT31;59989;46.220;19.888;2023-07-22T18:35:31;24.93;45.89
72114;SHT31;59989;46.220;19.888;2023-07-22T18:38:37;24.87;46.24
72114;SHT31;59989;46.220;19.888;2023-07-22T18:41:40;24.80;46.43
72114;SHT31;59989;46.220;19.888;2023-07-22T18:44:43;24.77;46.04
72114;SHT31;59989;46.220;19.888;2023-07-22T18:47:45;24.72;47.21
72114;SHT31;59989;46.220;19.888;2023-07-22T18:50:55;24.63;47.70
72114;SHT31;59989;46.220;19.888;2023-07-22T18:54:01;24.60;46.69
72114;SHT31;59989;46.220;19.888;2023-07-22T18:57:04;24.57;48.30
72114;SHT31;59989;46.220;19.888;2023-07-22T19:00:07;24.49;49.61
72114;SHT31;59989;46.220;19.888;2023-07-22T19:03:10;24.45;49.81
72114;SHT31;59989;46.220;19.888;2023-07-22T19:06:12;24.40;49.23
72114;SHT31;59989;46.220;19.888;2023-07-22T19:09:15;24.29;49.49